Haley, North Dakota
Current Conditions -  °F | °C
As of 4:23 AM on Thursday 18 Dec 2014 (Local Time) from KHEI Reporting Station
Haze Haze  
Wind Chill: 11°   Ceiling: 1700
Heat Index: 20°   Visibility: 5mi
Dew Point: 17°   Wind: 7mph
Humidity: 89%   Direction: 160°SSE
Pressure: 29.98"   Gusts: NA
Location:  46.1126°N, 103.12°W
Report Text: KHEI 181123Z AUTO 16006KT 5SM BR SCT005 OVC017 M07/M08 A2998 RMK AO2 T10671083
Loading
Personal Weather Stations






























Interactive Weather Map New forecast layout! Learn more

10-Day Weather Forecast

Advertisements
Track Severe Weather on mobile